»·PEaware :: UAL515 KPDX-KSEA

UAL515 :: KPDX-KSEA

FLIGHT INFORMATION

Flight Status: Arrived
Operator:
United Airlines
More flights by this operator :: More flights under this callsign
Pilot: Doug L. (8712)
Aircraft: BOEING 717-200
(B712)
More flights by this aircraft type
Origin: KPDX Portland Intl
United States
Destination: KSEA Seattle-Tacoma Intl
United States
More flights between these airports :: More routes between these airports
Route: +PTLD1 COUGA KRIEG HAWKZ7
File this flight plan on PilotEdge
Remarks:
Altitude:
(Current/Filed)
16,000ft
Speed:
(Current/Filed)
410kts
Departed: 06-Jan-19 11:01 AM
Arrived: 06-Jan-19 11:33 AM
Distance/Time
Traveled:
112nm/0:31
Distance/Time
To Go:
Arrived

Flight Plot

Page will automatically refresh every two minutes.

Flight plan parsing failed; only flown route is shown


Map Options




Map Legend


Flown Route
Filed Route
Departure Airport
Arrival Airport
Navaid (VOR, NDB)
Fix

Horizontal Profiles

Position Reports

Time Latitude Longitude Heading Altitude Ground
Speed
06-Jan-19 10:43 45.590809 -122.593089 239 38ft 0kts
06-Jan-19 10:44 45.590809 -122.593089 239 38ft 0kts
06-Jan-19 10:45 45.590809 -122.593089 239 38ft 0kts
06-Jan-19 10:46 45.590809 -122.593089 239 38ft 0kts
06-Jan-19 10:47 45.590809 -122.593089 239 38ft 0kts
06-Jan-19 10:48 45.590809 -122.593089 239 38ft 0kts
06-Jan-19 10:48 45.590809 -122.593089 239 38ft 0kts
06-Jan-19 10:50 45.590809 -122.593089 239 38ft 0kts
06-Jan-19 10:51 45.590809 -122.593089 239 38ft 0kts
06-Jan-19 10:52 45.590936 -122.592821 229 38ft 2kts
06-Jan-19 10:53 45.591466 -122.592548 150 38ft 2kts
06-Jan-19 10:53 45.591693 -122.592998 119 38ft 0kts
06-Jan-19 10:54 45.591693 -122.592998 118 38ft 0kts
06-Jan-19 10:55 45.591692 -122.592997 118 38ft 0kts
06-Jan-19 10:56 45.591758 -122.591053 118 38ft 20kts
06-Jan-19 10:57 45.588324 -122.582151 119 38ft 32kts
06-Jan-19 10:58 45.584107 -122.571465 119 38ft 26kts
06-Jan-19 10:59 45.583252 -122.566851 23 38ft 12kts
06-Jan-19 11:00 45.592972 -122.590864 297 257ft 173kts
06-Jan-19 11:01 45.621562 -122.658743 297 3687ft 207kts
06-Jan-19 11:02 45.667794 -122.703703 5 7576ft 242kts
06-Jan-19 11:03 45.742428 -122.696443 358 10036ft 286kts
06-Jan-19 11:04 45.823933 -122.692028 357 12719ft 301kts
06-Jan-19 11:05 45.909208 -122.687397 356 15204ft 314kts
06-Jan-19 11:06 46.002619 -122.682416 357 15996ft 371kts
06-Jan-19 11:07 46.114006 -122.681302 348 15984ft 413kts
06-Jan-19 11:08 46.227833 -122.704036 347 15974ft 413kts
06-Jan-19 11:09 46.342233 -122.723146 353 15969ft 416kts
06-Jan-19 11:10 46.457859 -122.727146 354 15960ft 416kts
06-Jan-19 11:11 46.573398 -122.731329 354 16029ft 416kts
06-Jan-19 11:12 46.686684 -122.753002 340 16028ft 408kts
06-Jan-19 11:13 46.796805 -122.725193 32 15942ft 402kts
06-Jan-19 11:14 46.877280 -122.630853 36 13561ft 346kts
06-Jan-19 11:15 46.954231 -122.555035 16 11736ft 322kts
06-Jan-19 11:16 47.037473 -122.518564 13 10730ft 306kts
06-Jan-19 11:17 47.119396 -122.492906 3 9908ft 300kts
06-Jan-19 11:18 47.202931 -122.478180 2 9972ft 300kts
06-Jan-19 11:19 47.281420 -122.466161 3 9187ft 275kts
06-Jan-19 11:20 47.357768 -122.455635 359 8065ft 271kts
06-Jan-19 11:21 47.433942 -122.455019 359 6806ft 272kts
06-Jan-19 11:22 47.509629 -122.445593 3 5138ft 261kts
06-Jan-19 11:23 47.576518 -122.437346 3 3989ft 236kts
06-Jan-19 11:24 47.642182 -122.429947 3 4010ft 237kts
06-Jan-19 11:25 47.686966 -122.377253 92 3340ft 221kts
06-Jan-19 11:26 47.656309 -122.314598 157 3048ft 201kts
06-Jan-19 11:27 47.601972 -122.306353 181 3002ft 194kts
06-Jan-19 11:28 47.556004 -122.306974 180 2224ft 139kts
06-Jan-19 11:29 47.517148 -122.307321 180 1517ft 141kts
06-Jan-19 11:30 47.477862 -122.307664 179 764ft 141kts
06-Jan-19 11:31 47.445839 -122.307980 179 441ft 49kts
06-Jan-19 11:32 47.443418 -122.306421 144 441ft 8kts
06-Jan-19 11:33 47.439909 -122.304398 89 441ft 13kts

Navigation Log

Ident Type
Flight plan parsing failed, navigation log unavailable